Time;durP1;ratioP1;P1;durP2;ratioP2;P2;SDS_P1;SDS_P2;PMS_P1;PMS_P2;Temp;Humidity;BMP_temperature;BMP_pressure;BME280_temperature;BME280_humidity;BME280_pressure;Samples;Min_cycle;Max_cycle;Signal;HPM_P1;HPM_P2
2023/07/18 00:00:38;;;;;;;5.37;5.17;;;22.20;8.90;;;;;;4954561;28;20183;-63
2023/07/18 00:03:04;;;;;;;5.53;5.23;;;22.30;8.90;;;;;;4954135;29;20183;-62
2023/07/18 00:05:31;;;;;;;5.40;5.10;;;22.20;8.80;;;;;;4954549;29;20257;-63
2023/07/18 00:07:56;;;;;;;5.90;5.13;;;22.20;8.60;;;;;;4954390;29;20435;-62
2023/07/18 00:10:23;;;;;;;5.20;5.00;;;22.20;8.70;;;;;;4954474;28;20859;-66
2023/07/18 00:12:49;;;;;;;5.50;5.20;;;22.20;9.20;;;;;;4955385;29;20180;-63
2023/07/18 00:15:16;;;;;;;5.50;5.20;;;22.20;9.70;;;;;;4955684;29;20773;-62
2023/07/18 00:17:43;;;;;;;5.90;5.40;;;22.20;9.90;;;;;;4956204;28;20422;-62
2023/07/18 00:20:17;;;;;;;5.07;4.87;;;22.20;10.00;;;;;;4956632;28;20529;-62
2023/07/18 00:22:47;;;;;;;5.77;5.47;;;22.10;10.10;;;;;;4956129;29;20535;-61
2023/07/18 00:25:16;;;;;;;5.60;5.20;;;22.00;10.00;;;;;;4955435;28;20795;-61
2023/07/18 00:27:42;;;;;;;5.57;5.13;;;22.00;10.20;;;;;;4955491;28;20422;-61
2023/07/18 00:30:12;;;;;;;5.23;4.83;;;22.00;10.40;;;;;;4954939;28;20466;-61
2023/07/18 00:32:38;;;;;;;5.63;5.23;;;21.90;10.30;;;;;;4955297;28;20474;-61
2023/07/18 00:35:04;;;;;;;5.50;5.30;;;22.00;10.30;;;;;;4955132;28;20916;-61
2023/07/18 00:37:31;;;;;;;5.40;5.10;;;21.90;10.50;;;;;;4955174;29;20411;-60
2023/07/18 00:39:57;;;;;;;5.57;5.37;;;21.90;10.50;;;;;;4954838;29;20429;-60
2023/07/18 00:42:23;;;;;;;5.63;5.33;;;22.00;10.50;;;;;;4955075;28;20423;-59
2023/07/18 00:44:49;;;;;;;6.40;5.90;;;21.90;10.40;;;;;;4955053;29;20439;-60
2023/07/18 00:47:16;;;;;;;5.43;5.13;;;21.90;10.60;;;;;;4955086;28;20191;-60
2023/07/18 00:49:42;;;;;;;5.73;5.53;;;21.90;10.70;;;;;;4954856;29;20517;-61
2023/07/18 00:52:08;;;;;;;6.13;5.80;;;21.90;11.00;;;;;;4954830;29;20447;-61
2023/07/18 00:54:35;;;;;;;7.03;6.33;;;21.90;10.90;;;;;;4954981;29;20624;-61
2023/07/18 00:57:01;;;;;;;5.90;5.60;;;21.90;11.10;;;;;;4956786;28;20411;-61
2023/07/18 00:59:29;;;;;;;6.10;5.57;;;21.90;11.30;;;;;;4956016;29;20423;-61
2023/07/18 01:01:55;;;;;;;6.93;5.43;;;21.90;11.30;;;;;;4955343;28;20427;-61
2023/07/18 01:04:21;;;;;;;5.80;5.30;;;21.90;11.10;;;;;;4954580;28;20415;-61
2023/07/18 01:06:48;;;;;;;5.43;5.13;;;21.90;10.90;;;;;;4956013;28;20419;-61
2023/07/18 01:09:14;;;;;;;5.73;5.30;;;21.80;11.10;;;;;;4954417;29;20207;-61
2023/07/18 01:11:39;;;;;;;5.37;5.07;;;21.80;11.20;;;;;;4954670;29;20493;-60
2023/07/18 01:14:05;;;;;;;5.33;5.03;;;21.80;11.30;;;;;;4954733;29;20828;-60
2023/07/18 01:16:31;;;;;;;5.27;4.97;;;21.70;11.40;;;;;;4954533;28;20238;-61
2023/07/18 01:18:57;;;;;;;5.70;5.30;;;21.70;11.40;;;;;;4954240;29;20435;-61
2023/07/18 01:21:25;;;;;;;5.53;5.03;;;21.70;11.40;;;;;;4954335;28;20183;-61
2023/07/18 01:23:51;;;;;;;5.40;5.10;;;21.70;11.30;;;;;;4954426;28;20732;-61
2023/07/18 01:26:16;;;;;;;5.83;5.47;;;21.60;11.30;;;;;;4970542;28;20506;-61
2023/07/18 01:28:42;;;;;;;5.93;5.53;;;21.70;11.30;;;;;;4954257;29;20183;-61
2023/07/18 01:31:08;;;;;;;5.90;5.60;;;21.60;11.30;;;;;;4954153;29;20215;-59
2023/07/18 01:33:34;;;;;;;6.07;5.67;;;21.60;11.40;;;;;;4954426;29;20183;-59
2023/07/18 01:39:21;;;;;;;5.60;5.30;;;21.60;11.30;;;;;;4955195;28;20397;-61
2023/07/18 01:41:47;;;;;;;5.70;5.40;;;21.60;11.70;;;;;;4970222;28;20423;-60
2023/07/18 01:44:13;;;;;;;5.57;5.37;;;21.60;11.90;;;;;;4954010;29;20184;-60
2023/07/18 01:46:38;;;;;;;6.10;5.70;;;21.60;12.00;;;;;;4954113;28;20544;-60
2023/07/18 01:49:04;;;;;;;5.77;5.40;;;21.50;12.10;;;;;;4953659;28;20182;-60
2023/07/18 01:51:30;;;;;;;5.63;5.33;;;21.50;12.20;;;;;;4953856;28;20175;-60
2023/07/18 01:53:56;;;;;;;6.03;5.73;;;21.50;12.50;;;;;;4970024;28;20238;-60
2023/07/18 01:56:21;;;;;;;6.23;5.87;;;21.40;12.50;;;;;;4953830;28;20422;-61
2023/07/18 01:58:47;;;;;;;6.10;5.70;;;21.40;13.10;;;;;;4954822;29;20175;-62
2023/07/18 02:01:13;;;;;;;6.37;6.07;;;21.40;12.60;;;;;;4953612;28;20179;-62
2023/07/18 02:03:39;;;;;;;7.17;6.50;;;21.40;12.60;;;;;;4953680;29;20179;-62
2023/07/18 02:06:04;;;;;;;6.27;5.97;;;21.40;12.80;;;;;;4969703;28;20444;-62
2023/07/18 02:08:30;;;;;;;6.30;6.00;;;21.30;13.10;;;;;;4954140;28;20175;-62
2023/07/18 02:10:55;;;;;;;6.73;6.30;;;21.30;13.40;;;;;;4952955;29;20218;-60
2023/07/18 02:13:21;;;;;;;6.40;6.00;;;21.30;13.60;;;;;;4969585;28;20548;-60
2023/07/18 02:15:47;;;;;;;6.73;6.23;;;21.30;13.70;;;;;;4969721;28;20637;-60
2023/07/18 02:18:12;;;;;;;6.83;6.43;;;21.30;13.80;;;;;;4953146;29;20198;-60
2023/07/18 02:20:38;;;;;;;6.33;6.03;;;21.30;14.00;;;;;;4969609;28;20187;-60
2023/07/18 02:23:04;;;;;;;7.70;7.10;;;21.30;14.00;;;;;;4953207;29;20183;-60
2023/07/18 02:25:30;;;;;;;7.23;6.73;;;21.30;13.90;;;;;;4969273;28;20493;-60
2023/07/18 02:27:55;;;;;;;7.10;6.60;;;21.20;13.90;;;;;;4953004;28;20179;-60
2023/07/18 02:30:21;;;;;;;6.50;6.10;;;21.20;14.00;;;;;;4953395;28;20310;-60
2023/07/18 02:32:46;;;;;;;6.53;6.23;;;21.20;13.90;;;;;;4955077;28;20183;-60
2023/07/18 02:35:17;;;;;;;6.53;6.03;;;20.80;14.00;;;;;;4954312;29;20636;-62
2023/07/18 02:37:43;;;;;;;6.60;6.30;;;20.70;14.70;;;;;;4953270;29;20230;-62
2023/07/18 02:40:09;;;;;;;6.40;6.10;;;20.80;14.80;;;;;;4952980;29;20438;-62
2023/07/18 02:42:35;;;;;;;6.93;6.53;;;20.80;14.80;;;;;;4953113;29;20427;-60
2023/07/18 02:45:01;;;;;;;6.93;6.40;;;20.90;15.10;;;;;;4952976;29;20194;-60
2023/07/18 02:47:27;;;;;;;6.60;6.20;;;20.90;15.00;;;;;;4952995;29;20799;-60
2023/07/18 02:49:52;;;;;;;6.13;5.93;;;20.90;14.60;;;;;;4952738;29;20694;-60
2023/07/18 02:52:18;;;;;;;6.50;6.10;;;21.00;14.80;;;;;;4952968;29;21264;-60
2023/07/18 02:54:43;;;;;;;5.80;5.50;;;21.00;14.80;;;;;;4953130;28;20190;-60
2023/07/18 02:57:09;;;;;;;6.30;6.00;;;20.90;13.70;;;;;;4952892;29;20186;-60
2023/07/18 02:59:35;;;;;;;5.87;5.67;;;20.60;14.30;;;;;;4968947;28;20189;-60
2023/07/18 03:02:01;;;;;;;6.20;5.90;;;20.40;14.70;;;;;;4952870;29;20458;-60
2023/07/18 03:04:26;;;;;;;6.50;6.20;;;20.40;14.50;;;;;;4952898;29;20186;-62
2023/07/18 03:06:53;;;;;;;7.30;6.90;;;20.50;14.90;;;;;;4952989;29;20578;-62
2023/07/18 03:09:19;;;;;;;6.60;6.30;;;20.60;15.20;;;;;;4952904;28;20206;-61
2023/07/18 03:11:46;;;;;;;7.50;6.97;;;20.70;15.20;;;;;;4953000;28;20443;-62
2023/07/18 03:14:12;;;;;;;7.17;6.83;;;20.70;15.10;;;;;;4952907;28;20470;-62
2023/07/18 03:16:38;;;;;;;6.80;6.50;;;20.80;15.10;;;;;;4952904;29;20446;-62
2023/07/18 03:19:05;;;;;;;6.87;6.50;;;20.80;14.90;;;;;;4952519;29;20915;-62
2023/07/18 03:21:31;;;;;;;6.43;6.03;;;20.80;15.30;;;;;;4955452;28;20450;-62
2023/07/18 03:23:57;;;;;;;7.10;6.40;;;20.80;14.80;;;;;;4956445;29;20467;-62
2023/07/18 03:26:23;;;;;;;6.43;6.13;;;20.90;14.20;;;;;;4956401;29;20183;-62
2023/07/18 03:28:48;;;;;;;6.97;6.57;;;20.80;14.50;;;;;;4956272;29;20433;-62
2023/07/18 03:31:14;;;;;;;6.80;6.50;;;20.80;14.80;;;;;;4956419;29;20215;-62
2023/07/18 03:33:40;;;;;;;6.47;6.17;;;20.80;14.70;;;;;;4956351;28;20230;-63
2023/07/18 03:36:06;;;;;;;6.20;5.80;;;20.80;14.20;;;;;;4956178;28;20191;-62
2023/07/18 03:38:32;;;;;;;5.70;5.40;;;20.80;14.70;;;;;;4956101;29;20901;-62
2023/07/18 03:40:58;;;;;;;6.30;6.00;;;20.70;14.00;;;;;;4956232;28;20183;-62
2023/07/18 03:43:24;;;;;;;6.23;5.90;;;20.70;14.00;;;;;;4956576;29;20663;-62
2023/07/18 03:45:51;;;;;;;5.90;5.70;;;20.70;14.10;;;;;;4956487;28;20473;-62
2023/07/18 03:48:17;;;;;;;5.90;5.60;;;20.60;14.30;;;;;;4956106;29;20489;-62
2023/07/18 03:50:43;;;;;;;6.03;5.60;;;20.60;13.50;;;;;;4956045;28;20845;-62
2023/07/18 03:53:09;;;;;;;6.43;6.03;;;20.60;13.90;;;;;;4956076;28;20419;-62
2023/07/18 03:55:35;;;;;;;6.70;6.20;;;20.70;15.00;;;;;;4956206;28;20429;-62
2023/07/18 03:58:00;;;;;;;7.13;6.53;;;20.50;15.80;;;;;;4955729;28;20210;-62
2023/07/18 04:00:26;;;;;;;6.67;6.27;;;20.50;15.60;;;;;;4956010;29;20194;-62
2023/07/18 04:02:52;;;;;;;7.10;6.50;;;20.50;15.50;;;;;;4956979;29;20707;-62
2023/07/18 04:05:18;;;;;;;6.97;6.57;;;20.50;15.40;;;;;;4955689;29;20668;-62
2023/07/18 04:07:45;;;;;;;7.50;6.77;;;20.60;15.40;;;;;;4955587;28;20194;-62
2023/07/18 04:10:12;;;;;;;6.43;6.10;;;20.50;15.50;;;;;;4955452;29;20470;-62
2023/07/18 04:12:38;;;;;;;7.20;6.80;;;20.60;15.40;;;;;;4955825;28;20439;-62
2023/07/18 04:15:06;;;;;;;6.83;6.53;;;20.60;15.40;;;;;;4955665;28;20511;-62
2023/07/18 04:17:32;;;;;;;7.47;6.80;;;20.60;15.20;;;;;;4955454;29;20433;-62
2023/07/18 04:20:01;;;;;;;7.40;7.00;;;20.60;15.10;;;;;;4955340;29;20423;-63
2023/07/18 04:22:29;;;;;;;7.10;6.70;;;20.50;15.40;;;;;;4955357;29;20190;-62
2023/07/18 04:24:55;;;;;;;7.20;6.80;;;20.40;15.50;;;;;;4955413;29;20510;-61
2023/07/18 04:27:22;;;;;;;7.00;6.60;;;20.30;16.10;;;;;;4955323;29;20431;-61
2023/07/18 04:29:48;;;;;;;7.10;6.80;;;20.00;16.60;;;;;;4955260;29;20830;-62
2023/07/18 04:32:14;;;;;;;7.30;6.90;;;19.90;17.00;;;;;;4954267;28;20907;-62
2023/07/18 04:34:39;;;;;;;7.43;7.03;;;20.10;16.90;;;;;;4955525;28;20430;-60
2023/07/18 04:37:05;;;;;;;7.23;6.83;;;20.10;17.50;;;;;;4955330;29;20186;-59
2023/07/18 04:39:31;;;;;;;8.00;7.50;;;20.20;17.40;;;;;;4955194;28;20651;-59
2023/07/18 04:41:57;;;;;;;8.07;7.47;;;20.20;17.90;;;;;;4955278;29;20235;-60
2023/07/18 04:44:23;;;;;;;8.17;7.50;;;20.10;18.40;;;;;;4972006;28;20193;-60
2023/07/18 04:46:48;;;;;;;8.63;8.03;;;20.20;18.30;;;;;;4956179;28;20231;-60
2023/07/18 04:49:14;;;;;;;9.63;8.80;;;20.20;19.00;;;;;;4955654;29;20454;-59
2023/07/18 04:51:40;;;;;;;9.73;9.03;;;20.10;19.80;;;;;;4955375;29;20707;-62
2023/07/18 04:54:06;;;;;;;9.53;8.90;;;20.10;19.80;;;;;;4955077;29;20186;-62
2023/07/18 04:56:32;;;;;;;10.27;9.43;;;20.20;19.80;;;;;;4971096;28;20202;-60
2023/07/18 04:58:58;;;;;;;9.10;8.40;;;20.20;19.70;;;;;;4970766;28;20419;-59
2023/07/18 05:01:24;;;;;;;10.13;9.17;;;20.20;19.60;;;;;;4954698;29;20179;-59
2023/07/18 05:03:50;;;;;;;10.73;9.80;;;20.20;19.70;;;;;;4955036;28;20425;-59
2023/07/18 05:06:16;;;;;;;10.33;9.63;;;20.10;20.20;;;;;;4954869;28;20180;-61
2023/07/18 05:08:42;;;;;;;9.63;9.00;;;20.10;20.50;;;;;;4971252;28;20190;-61
2023/07/18 05:11:08;;;;;;;10.43;9.77;;;20.20;20.20;;;;;;4970848;28;20475;-61
2023/07/18 05:13:33;;;;;;;10.43;9.47;;;20.20;20.10;;;;;;4954788;28;20180;-60
2023/07/18 05:16:00;;;;;;;10.87;10.17;;;20.20;20.10;;;;;;4954838;29;20281;-60
2023/07/18 05:18:26;;;;;;;10.33;9.63;;;20.30;20.00;;;;;;4954582;28;20311;-59
2023/07/18 05:20:58;;;;;;;10.17;9.37;;;20.30;19.80;;;;;;4954757;29;20987;-60
2023/07/18 05:23:24;;;;;;;10.70;9.90;;;20.40;20.00;;;;;;4954404;28;20274;-60
2023/07/18 05:25:50;;;;;;;10.73;10.00;;;20.40;20.30;;;;;;4954448;29;20529;-60
2023/07/18 05:28:15;;;;;;;10.83;9.80;;;20.40;20.20;;;;;;4954088;28;20183;-59
2023/07/18 05:30:41;;;;;;;10.00;9.43;;;20.40;20.00;;;;;;4955792;29;20508;-58
2023/07/18 05:33:07;;;;;;;10.07;9.47;;;20.30;20.30;;;;;;4954353;28;20637;-59
2023/07/18 05:35:34;;;;;;;10.90;10.20;;;20.40;20.20;;;;;;4954332;28;20187;-59
2023/07/18 05:38:01;;;;;;;10.00;9.40;;;20.40;20.30;;;;;;4953925;28;20490;-59
2023/07/18 05:40:27;;;;;;;10.00;9.30;;;20.40;19.70;;;;;;4954055;28;20434;-59
2023/07/18 05:42:53;;;;;;;10.60;9.77;;;20.50;19.80;;;;;;4955447;28;20908;-59
2023/07/18 05:45:19;;;;;;;12.10;11.20;;;20.50;19.90;;;;;;4954057;29;20434;-59
2023/07/18 05:47:44;;;;;;;10.23;9.53;;;20.60;19.80;;;;;;4954022;28;20187;-59
2023/07/18 05:50:11;;;;;;;9.70;9.00;;;20.70;19.80;;;;;;4953681;29;20474;-59
2023/07/18 05:52:37;;;;;;;11.60;10.70;;;20.70;20.50;;;;;;4953099;28;20187;-65
2023/07/18 05:55:04;;;;;;;11.17;10.37;;;20.50;19.60;;;;;;4951784;29;20946;-64
2023/07/18 05:57:30;;;;;;;11.47;10.50;;;20.40;20.40;;;;;;4950405;29;20434;-66
2023/07/18 05:59:56;;;;;;;10.63;10.03;;;20.50;19.60;;;;;;4952131;29;20431;-64
2023/07/18 06:02:21;;;;;;;9.90;9.13;;;20.30;18.90;;;;;;4958069;28;20513;-64
2023/07/18 06:04:48;;;;;;;10.07;9.40;;;20.30;19.10;;;;;;4963733;28;20506;-65
2023/07/18 06:07:14;;;;;;;10.63;9.77;;;20.30;18.70;;;;;;4950572;28;20183;-65
2023/07/18 06:09:40;;;;;;;10.70;9.97;;;20.30;18.60;;;;;;4953141;29;20470;-67
2023/07/18 06:12:06;;;;;;;10.10;9.60;;;20.20;18.70;;;;;;4953616;29;21093;-65
2023/07/18 06:14:33;;;;;;;9.97;9.27;;;20.20;18.80;;;;;;4953775;28;20186;-67
2023/07/18 06:16:59;;;;;;;11.00;10.00;;;20.20;18.40;;;;;;4953524;29;20853;-67
2023/07/18 06:19:24;;;;;;;11.53;10.73;;;20.30;18.60;;;;;;4953474;29;20434;-67
2023/07/18 06:21:50;;;;;;;10.80;10.00;;;20.30;18.90;;;;;;4953608;28;20187;-67
2023/07/18 06:24:16;;;;;;;11.27;10.50;;;20.20;19.20;;;;;;4956449;28;20202;-66
2023/07/18 06:26:48;;;;;;;11.33;10.43;;;20.30;19.40;;;;;;4963445;28;20283;-62
2023/07/18 06:29:15;;;;;;;10.37;9.67;;;20.50;18.90;;;;;;4947585;28;20457;-61
2023/07/18 06:31:42;;;;;;;11.20;10.10;;;20.60;18.60;;;;;;4988710;28;20529;-63
2023/07/18 06:34:07;;;;;;;11.17;10.57;;;20.70;18.60;;;;;;4972171;28;20437;-63
2023/07/18 06:36:33;;;;;;;10.37;9.80;;;20.70;18.50;;;;;;4972409;28;20426;-62
2023/07/18 06:38:58;;;;;;;10.80;10.10;;;20.80;18.00;;;;;;4971411;28;20763;-61
2023/07/18 06:41:24;;;;;;;10.13;9.20;;;20.90;17.70;;;;;;4972287;28;20551;-65
2023/07/18 06:43:50;;;;;;;9.77;9.10;;;20.90;17.90;;;;;;4971682;28;20183;-61
2023/07/18 06:46:16;;;;;;;10.50;9.50;;;20.90;17.40;;;;;;4970482;28;20543;-63
2023/07/18 06:48:41;;;;;;;9.37;8.83;;;20.90;17.20;;;;;;4970509;28;20265;-63
2023/07/18 06:51:07;;;;;;;9.27;8.77;;;21.00;17.20;;;;;;4970341;28;20461;-63
2023/07/18 06:53:33;;;;;;;10.33;9.70;;;21.00;17.40;;;;;;4970914;28;20667;-63
2023/07/18 06:55:59;;;;;;;11.03;10.13;;;21.10;17.20;;;;;;4970221;28;20185;-64
2023/07/18 06:58:24;;;;;;;10.03;9.33;;;21.20;16.70;;;;;;4972033;28;20505;-64
2023/07/18 07:00:50;;;;;;;9.03;8.30;;;21.10;16.50;;;;;;4971989;28;20189;-63
2023/07/18 07:03:16;;;;;;;8.90;8.33;;;21.10;15.50;;;;;;4972039;28;20698;-61
2023/07/18 07:05:43;;;;;;;8.33;7.83;;;21.20;15.90;;;;;;4972173;28;20238;-61
2023/07/18 07:08:09;;;;;;;8.87;8.23;;;21.20;15.40;;;;;;4972100;28;20186;-61
2023/07/18 07:10:36;;;;;;;9.17;8.20;;;21.30;15.60;;;;;;4973132;28;20491;-60
2023/07/18 07:13:03;;;;;;;8.27;7.97;;;21.30;15.40;;;;;;4971172;28;20472;-61
2023/07/18 07:15:28;;;;;;;10.20;9.20;;;21.40;15.50;;;;;;4970907;28;20418;-61
2023/07/18 07:17:54;;;;;;;10.93;10.17;;;21.50;15.50;;;;;;4971385;28;21013;-61
2023/07/18 07:20:20;;;;;;;10.03;9.43;;;21.40;15.50;;;;;;4971061;28;20573;-61
2023/07/18 07:22:47;;;;;;;9.30;8.60;;;21.40;15.60;;;;;;4970821;28;20240;-61
2023/07/18 07:25:14;;;;;;;9.30;8.70;;;21.50;16.00;;;;;;4972090;28;20430;-61
2023/07/18 07:27:44;;;;;;;9.40;8.50;;;21.60;15.90;;;;;;4972168;28;20567;-60
2023/07/18 07:30:15;;;;;;;8.83;8.30;;;21.60;16.10;;;;;;4971643;28;20480;-61
2023/07/18 07:32:45;;;;;;;8.80;8.30;;;21.70;15.70;;;;;;4972313;28;20801;-61
2023/07/18 07:35:11;;;;;;;8.73;8.23;;;21.70;15.50;;;;;;4972023;28;20438;-60
2023/07/18 07:37:40;;;;;;;8.87;8.37;;;21.80;14.90;;;;;;4971984;28;20911;-62
2023/07/18 07:40:09;;;;;;;9.93;9.27;;;21.80;14.30;;;;;;4971481;28;20541;-63
2023/07/18 07:42:36;;;;;;;9.07;8.53;;;21.90;14.40;;;;;;4971557;28;20438;-63
2023/07/18 07:45:01;;;;;;;10.13;9.23;;;21.90;14.70;;;;;;4971590;28;20429;-63
2023/07/18 07:47:27;;;;;;;9.30;8.70;;;21.90;14.40;;;;;;4971536;28;20433;-62
2023/07/18 07:49:53;;;;;;;9.30;8.80;;;22.00;14.50;;;;;;4971288;28;20222;-63
2023/07/18 07:52:19;;;;;;;8.87;8.00;;;21.90;14.40;;;;;;4971482;28;20480;-62
2023/07/18 07:54:45;;;;;;;9.93;9.13;;;22.00;14.50;;;;;;4971576;28;20185;-63
2023/07/18 07:57:10;;;;;;;8.87;8.47;;;22.10;13.90;;;;;;4972559;28;20274;-63
2023/07/18 07:59:36;;;;;;;8.93;8.33;;;22.10;14.10;;;;;;4971197;28;20190;-63
2023/07/18 08:02:03;;;;;;;9.20;8.60;;;22.10;14.10;;;;;;4971317;28;20257;-63
2023/07/18 08:04:28;;;;;;;9.20;8.57;;;22.20;14.60;;;;;;4971390;28;20426;-62
2023/07/18 08:06:56;;;;;;;9.37;8.67;;;22.20;14.30;;;;;;4971501;28;20834;-63
2023/07/18 08:09:23;;;;;;;9.40;8.50;;;22.20;13.40;;;;;;4974552;28;20218;-63
2023/07/18 08:11:49;;;;;;;9.27;8.67;;;22.30;13.90;;;;;;4975043;28;20421;-62
2023/07/18 08:14:15;;;;;;;9.17;8.50;;;22.40;13.30;;;;;;4974675;28;20447;-63
2023/07/18 08:16:41;;;;;;;8.93;8.30;;;22.40;12.80;;;;;;4974794;28;20414;-62
2023/07/18 08:19:07;;;;;;;8.93;8.33;;;22.50;13.30;;;;;;4974454;28;20426;-63
2023/07/18 08:21:34;;;;;;;9.70;8.80;;;22.50;13.30;;;;;;4974465;28;20517;-63
2023/07/18 08:24:00;;;;;;;9.83;9.20;;;22.60;13.10;;;;;;4974517;28;20791;-63
2023/07/18 08:26:25;;;;;;;9.60;8.90;;;22.70;13.10;;;;;;4974493;28;20426;-63
2023/07/18 08:28:51;;;;;;;10.07;9.37;;;22.80;12.50;;;;;;4988362;28;20509;-62
2023/07/18 08:31:17;;;;;;;13.53;9.70;;;22.80;12.40;;;;;;4952444;28;20230;-63
2023/07/18 08:33:44;;;;;;;9.17;8.67;;;22.90;11.40;;;;;;4936242;29;20216;-63
2023/07/18 08:36:10;;;;;;;8.73;8.33;;;23.00;11.50;;;;;;4935762;29;20179;-62
2023/07/18 08:38:35;;;;;;;10.10;9.40;;;23.00;10.70;;;;;;4936020;29;20426;-62
2023/07/18 08:41:01;;;;;;;9.17;8.30;;;23.20;10.90;;;;;;4935855;29;20443;-62
2023/07/18 08:43:27;;;;;;;9.20;8.60;;;23.30;10.30;;;;;;4936202;29;20191;-62
2023/07/18 08:45:55;;;;;;;9.13;8.60;;;23.30;10.80;;;;;;4937244;29;20251;-62
2023/07/18 08:48:21;;;;;;;9.70;9.13;;;23.30;10.70;;;;;;4935405;29;20490;-62
2023/07/18 08:50:47;;;;;;;9.30;8.80;;;23.40;11.50;;;;;;4935558;29;20463;-62
2023/07/18 08:53:13;;;;;;;9.40;8.97;;;23.40;10.80;;;;;;4935504;29;20443;-62
2023/07/18 08:55:39;;;;;;;8.87;8.37;;;23.40;11.00;;;;;;4935601;29;20175;-62
2023/07/18 08:58:05;;;;;;;8.90;8.40;;;23.50;10.30;;;;;;4935217;29;20216;-62
2023/07/18 09:00:31;;;;;;;8.93;8.43;;;23.60;10.30;;;;;;4935361;29;20467;-61
2023/07/18 09:02:56;;;;;;;9.17;8.57;;;23.60;10.00;;;;;;4935446;29;20188;-61
2023/07/18 09:05:35;;;;;;;9.87;9.13;;;23.60;9.90;;;;;;4935028;29;20563;-62
2023/07/18 09:08:03;;;;;;;9.93;9.33;;;23.70;9.90;;;;;;4934986;29;20521;-61
2023/07/18 09:10:29;;;;;;;9.03;8.53;;;23.70;9.80;;;;;;4935011;29;20554;-62
2023/07/18 09:13:03;;;;;;;8.90;8.50;;;23.70;10.10;;;;;;4936485;29;20416;-62
2023/07/18 09:15:32;;;;;;;10.30;9.57;;;23.70;10.00;;;;;;4935228;29;20415;-62
2023/07/18 09:18:01;;;;;;;9.60;9.10;;;23.70;10.00;;;;;;4934671;29;20897;-63
2023/07/18 09:20:28;;;;;;;9.97;9.57;;;23.70;10.50;;;;;;4950159;28;20424;-64
2023/07/18 09:22:56;;;;;;;10.10;9.53;;;23.80;10.60;;;;;;4951042;28;20423;-62
2023/07/18 09:25:23;;;;;;;9.67;9.27;;;23.90;9.80;;;;;;4951381;28;20820;-63
2023/07/18 09:27:57;;;;;;;10.77;10.17;;;24.00;10.10;;;;;;4951162;28;20431;-63
2023/07/18 09:30:36;;;;;;;11.07;10.27;;;24.10;9.40;;;;;;4950839;28;20879;-63
2023/07/18 09:33:06;;;;;;;10.90;10.40;;;24.20;10.00;;;;;;4950852;28;20420;-62
2023/07/18 09:35:50;;;;;;;9.80;9.27;;;24.20;9.90;;;;;;4950831;28;20858;-62
2023/07/18 09:38:17;;;;;;;10.00;9.40;;;24.30;9.10;;;;;;4950512;28;20428;-62
2023/07/18 09:40:44;;;;;;;9.57;9.07;;;24.40;9.00;;;;;;4950883;28;20435;-62
2023/07/18 09:43:12;;;;;;;9.70;9.10;;;24.40;9.20;;;;;;4950613;28;20507;-62
2023/07/18 09:45:39;;;;;;;9.10;8.53;;;24.50;8.50;;;;;;4950645;28;20432;-62
2023/07/18 09:48:05;;;;;;;9.53;9.03;;;24.70;8.20;;;;;;4950381;28;20764;-63
2023/07/18 09:50:34;;;;;;;9.37;8.90;;;24.90;7.90;;;;;;4950568;28;20470;-62
2023/07/18 09:53:05;;;;;;;8.50;8.10;;;25.10;7.70;;;;;;4950294;28;20444;-62
2023/07/18 09:55:34;;;;;;;10.23;9.20;;;25.10;7.90;;;;;;4950496;28;20428;-62
2023/07/18 09:58:00;;;;;;;9.30;8.60;;;25.10;8.20;;;;;;4950217;28;20455;-61
2023/07/18 10:00:26;;;;;;;8.63;8.23;;;25.20;8.40;;;;;;4950321;28;20459;-61
2023/07/18 10:02:54;;;;;;;8.50;8.00;;;25.30;8.40;;;;;;4950320;28;20423;-62
2023/07/18 10:05:20;;;;;;;7.90;7.50;;;25.30;8.50;;;;;;4950148;28;20816;-62
2023/07/18 10:07:46;;;;;;;9.20;8.33;;;25.30;7.70;;;;;;4950106;28;20435;-62
2023/07/18 10:10:13;;;;;;;8.73;8.13;;;25.30;7.70;;;;;;4949840;28;20471;-62
2023/07/18 10:12:54;;;;;;;8.80;8.20;;;25.40;7.80;;;;;;4935462;29;20499;-62
2023/07/18 10:15:19;;;;;;;10.10;9.30;;;25.30;7.30;;;;;;4951510;28;20530;-62
2023/07/18 10:17:47;;;;;;;8.03;7.67;;;25.30;7.70;;;;;;4934008;29;20802;-62
2023/07/18 10:20:19;;;;;;;8.40;8.00;;;25.30;7.70;;;;;;4933827;29;20652;-62
2023/07/18 10:22:58;;;;;;;7.77;7.47;;;25.50;7.80;;;;;;4969363;28;20844;-62
2023/07/18 10:25:29;;;;;;;7.87;7.47;;;25.50;7.60;;;;;;4971673;28;20508;-65
2023/07/18 10:27:56;;;;;;;8.17;7.77;;;25.50;7.60;;;;;;4971968;28;20461;-62
2023/07/18 10:30:22;;;;;;;8.87;8.27;;;25.40;7.80;;;;;;4946329;28;20460;-62
2023/07/18 10:32:56;;;;;;;8.57;7.87;;;25.40;7.80;;;;;;4933791;29;20435;-62
2023/07/18 10:35:26;;;;;;;8.30;7.70;;;25.30;8.20;;;;;;4935011;29;21062;-60
2023/07/18 10:37:54;;;;;;;9.40;8.70;;;25.30;7.80;;;;;;4933536;29;20954;-62
2023/07/18 10:40:36;;;;;;;9.20;8.50;;;25.30;8.30;;;;;;4933664;29;20491;-62
2023/07/18 10:43:18;;;;;;;9.10;8.40;;;25.40;8.10;;;;;;4933634;29;20499;-62
2023/07/18 10:45:44;;;;;;;8.33;7.73;;;25.40;8.00;;;;;;4933723;29;20455;-62
2023/07/18 10:48:10;;;;;;;8.93;8.30;;;25.40;8.50;;;;;;4933562;29;20432;-62
2023/07/18 10:50:36;;;;;;;9.60;8.93;;;25.40;8.50;;;;;;4933784;29;20212;-62
2023/07/18 10:53:02;;;;;;;8.53;7.93;;;25.40;8.20;;;;;;4933785;29;20773;-62
2023/07/18 10:55:28;;;;;;;8.63;8.00;;;25.30;8.60;;;;;;4933902;29;20184;-62
2023/07/18 10:57:55;;;;;;;9.17;8.30;;;25.30;8.70;;;;;;4934692;29;20637;-62
2023/07/18 11:00:24;;;;;;;7.90;7.40;;;25.30;8.80;;;;;;4933554;29;20654;-61
2023/07/18 11:02:50;;;;;;;8.10;7.60;;;25.30;8.30;;;;;;4935134;29;20420;-61
2023/07/18 11:05:16;;;;;;;8.17;7.67;;;25.30;8.20;;;;;;4933551;29;20799;-62
2023/07/18 11:07:44;;;;;;;7.90;7.50;;;25.50;7.90;;;;;;4933740;29;20585;-62
2023/07/18 11:10:10;;;;;;;7.57;7.17;;;25.60;8.00;;;;;;4933333;29;20531;-62
2023/07/18 11:12:37;;;;;;;8.30;7.90;;;25.60;7.90;;;;;;4933707;29;20758;-62
2023/07/18 11:15:07;;;;;;;8.50;8.10;;;25.60;7.90;;;;;;4933360;29;20430;-62
2023/07/18 11:17:33;;;;;;;8.00;7.60;;;25.70;7.90;;;;;;4933471;29;20419;-62
2023/07/18 11:19:59;;;;;;;7.97;7.57;;;25.80;8.00;;;;;;4933254;29;20427;-62
2023/07/18 11:22:25;;;;;;;8.23;7.73;;;25.70;8.50;;;;;;4933308;29;20416;-62
2023/07/18 11:24:55;;;;;;;7.93;7.40;;;25.70;7.90;;;;;;4933410;29;20646;-62
2023/07/18 11:27:25;;;;;;;8.80;8.30;;;25.60;8.20;;;;;;4933329;29;20435;-63
2023/07/18 11:30:06;;;;;;;8.70;8.20;;;25.70;7.90;;;;;;4932995;29;20467;-62
2023/07/18 11:32:37;;;;;;;7.23;6.90;;;25.60;7.90;;;;;;4933359;29;20770;-62
2023/07/18 11:35:06;;;;;;;9.23;7.47;;;25.60;8.30;;;;;;4933307;29;20440;-62
2023/07/18 11:37:33;;;;;;;9.00;8.53;;;25.60;8.50;;;;;;4934424;28;20419;-62
2023/07/18 11:39:59;;;;;;;9.63;8.70;;;25.60;8.50;;;;;;4933120;29;20438;-62
2023/07/18 11:42:40;;;;;;;7.80;7.40;;;25.60;8.60;;;;;;4937047;29;20412;-62
2023/07/18 11:45:09;;;;;;;7.67;7.27;;;25.50;9.40;;;;;;4936862;29;20596;-62
2023/07/18 11:47:37;;;;;;;11.90;10.87;;;25.50;9.60;;;;;;4936824;29;20942;-61
2023/07/18 11:50:09;;;;;;;8.60;7.90;;;25.50;10.50;;;;;;4937727;29;20499;-62
2023/07/18 11:52:35;;;;;;;7.57;7.17;;;25.50;10.90;;;;;;4936576;29;20423;-62
2023/07/18 11:55:00;;;;;;;7.53;7.13;;;25.40;11.30;;;;;;4936594;29;20415;-61
2023/07/18 11:57:26;;;;;;;7.40;6.77;;;25.30;11.30;;;;;;4936631;29;20520;-61
2023/07/18 11:59:52;;;;;;;8.00;7.30;;;25.30;11.90;;;;;;4947757;28;20197;-61
2023/07/18 12:02:19;;;;;;;8.07;7.03;;;25.20;11.10;;;;;;4990917;28;20269;-61
2023/07/18 12:04:45;;;;;;;7.50;7.10;;;25.20;11.40;;;;;;4973963;28;20422;-61
2023/07/18 12:07:10;;;;;;;13.67;12.57;;;25.20;10.70;;;;;;4974782;28;20432;-61
2023/07/18 12:09:36;;;;;;;7.07;6.67;;;25.20;11.50;;;;;;4974082;28;20574;-61
2023/07/18 12:12:03;;;;;;;9.30;8.50;;;25.20;12.70;;;;;;4989705;28;20694;-61
2023/07/18 12:14:30;;;;;;;7.33;6.83;;;25.20;11.90;;;;;;4974510;28;20709;-61
2023/07/18 12:16:55;;;;;;;6.93;6.53;;;25.30;11.30;;;;;;4974788;28;20422;-61
2023/07/18 12:19:21;;;;;;;7.70;7.20;;;25.30;11.20;;;;;;4974463;28;20418;-61
2023/07/18 12:21:48;;;;;;;7.73;7.03;;;25.30;11.10;;;;;;4990249;28;20590;-61
2023/07/18 12:24:14;;;;;;;6.97;6.47;;;25.40;11.40;;;;;;4973900;28;20613;-61
2023/07/18 12:26:39;;;;;;;8.07;7.30;;;25.40;11.00;;;;;;4973916;28;20450;-61
2023/07/18 12:29:05;;;;;;;7.73;7.13;;;25.40;11.10;;;;;;4974577;28;20477;-61
2023/07/18 12:31:34;;;;;;;7.30;6.90;;;25.50;11.00;;;;;;4974665;28;20211;-61
2023/07/18 12:33:59;;;;;;;7.20;6.70;;;25.60;10.80;;;;;;4974473;28;20207;-61
2023/07/18 12:36:25;;;;;;;7.80;7.40;;;25.60;10.90;;;;;;4974471;28;20484;-61
2023/07/18 12:38:51;;;;;;;7.43;6.93;;;25.60;10.60;;;;;;4974519;28;20543;-61
2023/07/18 12:41:17;;;;;;;7.43;6.90;;;25.60;10.60;;;;;;4974530;28;20179;-61
2023/07/18 12:43:43;;;;;;;7.40;7.00;;;25.50;11.00;;;;;;4974534;28;20555;-61
2023/07/18 12:46:08;;;;;;;12.17;7.73;;;25.50;10.70;;;;;;4974479;28;20481;-62